sensor_id;sensor_type;location;lat;lon;timestamp;temperature;humidity
41876;DHT22;27555;50.808;4.402;2023-07-29T00:00:47;20.90;99.90
41876;DHT22;27555;50.808;4.402;2023-07-29T00:03:12;21.00;99.90
41876;DHT22;27555;50.808;4.402;2023-07-29T00:05:38;20.90;99.90
41876;DHT22;27555;50.808;4.402;2023-07-29T00:08:05;20.70;99.90
41876;DHT22;27555;50.808;4.402;2023-07-29T00:10:36;20.80;99.90
41876;DHT22;27555;50.808;4.402;2023-07-29T00:13:03;20.70;99.90
41876;DHT22;27555;50.808;4.402;2023-07-29T00:15:29;20.60;99.90
41876;DHT22;27555;50.808;4.402;2023-07-29T00:17:55;20.50;99.90
41876;DHT22;27555;50.808;4.402;2023-07-29T00:20:20;20.40;99.90
41876;DHT22;27555;50.808;4.402;2023-07-29T00:22:46;20.60;99.90
41876;DHT22;27555;50.808;4.402;2023-07-29T00:25:11;20.50;99.90
41876;DHT22;27555;50.808;4.402;2023-07-29T00:27:37;20.30;99.90
41876;DHT22;27555;50.808;4.402;2023-07-29T00:30:03;20.40;99.90
41876;DHT22;27555;50.808;4.402;2023-07-29T00:32:29;20.30;99.90
41876;DHT22;27555;50.808;4.402;2023-07-29T00:34:56;20.20;99.90
41876;DHT22;27555;50.808;4.402;2023-07-29T00:37:21;20.10;99.90
41876;DHT22;27555;50.808;4.402;2023-07-29T00:39:47;20.00;99.90
41876;DHT22;27555;50.808;4.402;2023-07-29T00:42:13;20.20;99.90
41876;DHT22;27555;50.808;4.402;2023-07-29T00:44:38;20.30;99.90
41876;DHT22;27555;50.808;4.402;2023-07-29T00:47:05;20.20;99.90
41876;DHT22;27555;50.808;4.402;2023-07-29T00:49:31;20.20;99.90
41876;DHT22;27555;50.808;4.402;2023-07-29T00:51:57;20.20;99.90
41876;DHT22;27555;50.808;4.402;2023-07-29T00:54:23;20.10;99.90
41876;DHT22;27555;50.808;4.402;2023-07-29T00:56:49;20.00;99.90
41876;DHT22;27555;50.808;4.402;2023-07-29T00:59:15;20.00;99.90
41876;DHT22;27555;50.808;4.402;2023-07-29T01:01:40;20.00;99.90
41876;DHT22;27555;50.808;4.402;2023-07-29T01:04:06;20.10;99.90
41876;DHT22;27555;50.808;4.402;2023-07-29T01:06:56;20.10;99.90
41876;DHT22;27555;50.808;4.402;2023-07-29T01:12:33;20.00;99.90
41876;DHT22;27555;50.808;4.402;2023-07-29T01:17:43;20.00;99.90
41876;DHT22;27555;50.808;4.402;2023-07-29T01:20:15;20.10;99.90
41876;DHT22;27555;50.808;4.402;2023-07-29T01:22:41;20.00;99.90
41876;DHT22;27555;50.808;4.402;2023-07-29T01:25:07;19.90;99.90
41876;DHT22;27555;50.808;4.402;2023-07-29T01:27:33;20.00;99.90
41876;DHT22;27555;50.808;4.402;2023-07-29T01:29:59;20.20;99.90
41876;DHT22;27555;50.808;4.402;2023-07-29T01:33:14;20.20;99.90
41876;DHT22;27555;50.808;4.402;2023-07-29T01:38:38;19.90;99.90
41876;DHT22;27555;50.808;4.402;2023-07-29T01:41:08;19.80;99.90
41876;DHT22;27555;50.808;4.402;2023-07-29T01:43:34;19.70;99.90
41876;DHT22;27555;50.808;4.402;2023-07-29T01:46:05;19.80;99.90
41876;DHT22;27555;50.808;4.402;2023-07-29T01:48:31;19.80;99.90
41876;DHT22;27555;50.808;4.402;2023-07-29T01:50:57;19.70;99.90
41876;DHT22;27555;50.808;4.402;2023-07-29T01:53:23;19.70;99.90
41876;DHT22;27555;50.808;4.402;2023-07-29T01:55:49;19.80;99.90
41876;DHT22;27555;50.808;4.402;2023-07-29T01:58:14;19.80;99.90
41876;DHT22;27555;50.808;4.402;2023-07-29T02:00:40;19.80;99.90
41876;DHT22;27555;50.808;4.402;2023-07-29T02:03:06;19.80;99.90
41876;DHT22;27555;50.808;4.402;2023-07-29T02:05:31;19.70;99.90
41876;DHT22;27555;50.808;4.402;2023-07-29T02:07:57;19.70;99.90
41876;DHT22;27555;50.808;4.402;2023-07-29T02:10:22;19.70;99.90
41876;DHT22;27555;50.808;4.402;2023-07-29T02:12:48;19.70;99.90
41876;DHT22;27555;50.808;4.402;2023-07-29T02:15:13;19.70;99.90
41876;DHT22;27555;50.808;4.402;2023-07-29T02:17:41;19.70;99.90
41876;DHT22;27555;50.808;4.402;2023-07-29T02:20:07;19.70;99.90
41876;DHT22;27555;50.808;4.402;2023-07-29T02:22:33;19.70;99.90
41876;DHT22;27555;50.808;4.402;2023-07-29T02:24:59;19.70;99.90
41876;DHT22;27555;50.808;4.402;2023-07-29T02:27:25;19.70;99.90
41876;DHT22;27555;50.808;4.402;2023-07-29T02:29:52;19.70;99.90
41876;DHT22;27555;50.808;4.402;2023-07-29T02:32:18;19.70;99.90
41876;DHT22;27555;50.808;4.402;2023-07-29T02:34:44;19.50;99.90
41876;DHT22;27555;50.808;4.402;2023-07-29T02:37:10;19.40;99.90
41876;DHT22;27555;50.808;4.402;2023-07-29T02:39:35;19.50;99.90
41876;DHT22;27555;50.808;4.402;2023-07-29T02:42:01;19.50;99.90
41876;DHT22;27555;50.808;4.402;2023-07-29T02:44:27;19.60;99.90
41876;DHT22;27555;50.808;4.402;2023-07-29T02:46:52;19.70;99.90
41876;DHT22;27555;50.808;4.402;2023-07-29T02:49:20;19.60;99.90
41876;DHT22;27555;50.808;4.402;2023-07-29T02:51:45;19.50;99.90
41876;DHT22;27555;50.808;4.402;2023-07-29T02:54:11;19.60;99.90
41876;DHT22;27555;50.808;4.402;2023-07-29T02:56:36;19.70;99.90
41876;DHT22;27555;50.808;4.402;2023-07-29T02:59:02;19.70;99.90
41876;DHT22;27555;50.808;4.402;2023-07-29T03:01:27;19.60;99.90
41876;DHT22;27555;50.808;4.402;2023-07-29T03:03:53;19.60;99.90
41876;DHT22;27555;50.808;4.402;2023-07-29T03:06:19;19.50;99.90
41876;DHT22;27555;50.808;4.402;2023-07-29T03:08:44;19.60;99.90
41876;DHT22;27555;50.808;4.402;2023-07-29T03:11:13;19.60;99.90
41876;DHT22;27555;50.808;4.402;2023-07-29T03:13:39;19.50;99.90
41876;DHT22;27555;50.808;4.402;2023-07-29T03:16:09;19.40;99.90
41876;DHT22;27555;50.808;4.402;2023-07-29T03:18:35;19.50;99.90
41876;DHT22;27555;50.808;4.402;2023-07-29T03:21:01;19.40;99.90
41876;DHT22;27555;50.808;4.402;2023-07-29T03:23:31;19.40;99.90
41876;DHT22;27555;50.808;4.402;2023-07-29T03:25:58;19.40;99.90
41876;DHT22;27555;50.808;4.402;2023-07-29T03:28:28;19.30;99.90
41876;DHT22;27555;50.808;4.402;2023-07-29T03:30:57;19.30;99.90
41876;DHT22;27555;50.808;4.402;2023-07-29T03:33:25;19.30;99.90
41876;DHT22;27555;50.808;4.402;2023-07-29T03:35:51;19.30;99.90
41876;DHT22;27555;50.808;4.402;2023-07-29T03:38:17;19.20;99.90
41876;DHT22;27555;50.808;4.402;2023-07-29T03:40:43;19.30;99.90
41876;DHT22;27555;50.808;4.402;2023-07-29T03:43:08;19.20;99.90
41876;DHT22;27555;50.808;4.402;2023-07-29T03:45:36;19.10;99.90
41876;DHT22;27555;50.808;4.402;2023-07-29T03:48:02;19.20;99.90
41876;DHT22;27555;50.808;4.402;2023-07-29T03:50:29;19.20;99.90
41876;DHT22;27555;50.808;4.402;2023-07-29T03:52:55;19.10;99.90
41876;DHT22;27555;50.808;4.402;2023-07-29T03:55:21;19.10;99.90
41876;DHT22;27555;50.808;4.402;2023-07-29T03:57:47;19.20;99.90
41876;DHT22;27555;50.808;4.402;2023-07-29T04:00:12;19.10;99.90
41876;DHT22;27555;50.808;4.402;2023-07-29T04:02:38;19.20;99.90
41876;DHT22;27555;50.808;4.402;2023-07-29T04:05:05;19.20;99.90
41876;DHT22;27555;50.808;4.402;2023-07-29T04:07:31;19.20;99.90
41876;DHT22;27555;50.808;4.402;2023-07-29T04:09:56;19.10;99.90
41876;DHT22;27555;50.808;4.402;2023-07-29T04:12:23;19.20;99.90
41876;DHT22;27555;50.808;4.402;2023-07-29T04:14:48;19.30;99.90
41876;DHT22;27555;50.808;4.402;2023-07-29T04:17:14;19.30;99.90
41876;DHT22;27555;50.808;4.402;2023-07-29T04:19:40;19.10;99.90
41876;DHT22;27555;50.808;4.402;2023-07-29T04:22:05;19.30;99.90
41876;DHT22;27555;50.808;4.402;2023-07-29T04:24:31;19.30;99.90
41876;DHT22;27555;50.808;4.402;2023-07-29T04:26:56;19.20;99.90
41876;DHT22;27555;50.808;4.402;2023-07-29T04:29:22;19.10;99.90
41876;DHT22;27555;50.808;4.402;2023-07-29T04:31:51;19.20;99.90
41876;DHT22;27555;50.808;4.402;2023-07-29T04:34:17;19.20;99.90
41876;DHT22;27555;50.808;4.402;2023-07-29T04:36:43;19.20;99.90
41876;DHT22;27555;50.808;4.402;2023-07-29T04:39:08;19.30;99.90
41876;DHT22;27555;50.808;4.402;2023-07-29T04:41:34;19.30;99.90
41876;DHT22;27555;50.808;4.402;2023-07-29T04:44:00;19.30;99.90
41876;DHT22;27555;50.808;4.402;2023-07-29T04:46:25;19.30;99.90
41876;DHT22;27555;50.808;4.402;2023-07-29T04:48:51;19.30;99.90
41876;DHT22;27555;50.808;4.402;2023-07-29T04:51:16;19.30;99.90
41876;DHT22;27555;50.808;4.402;2023-07-29T04:53:42;19.30;99.90
41876;DHT22;27555;50.808;4.402;2023-07-29T04:56:08;19.30;99.90
41876;DHT22;27555;50.808;4.402;2023-07-29T04:58:33;19.30;99.90
41876;DHT22;27555;50.808;4.402;2023-07-29T05:01:01;19.30;99.90
41876;DHT22;27555;50.808;4.402;2023-07-29T05:03:27;19.30;99.90
41876;DHT22;27555;50.808;4.402;2023-07-29T05:05:52;19.30;99.90
41876;DHT22;27555;50.808;4.402;2023-07-29T05:08:20;19.30;99.90
41876;DHT22;27555;50.808;4.402;2023-07-29T05:10:49;19.30;99.90
41876;DHT22;27555;50.808;4.402;2023-07-29T05:13:15;19.40;99.90
41876;DHT22;27555;50.808;4.402;2023-07-29T05:15:40;19.30;99.90
41876;DHT22;27555;50.808;4.402;2023-07-29T05:18:06;19.10;99.90
41876;DHT22;27555;50.808;4.402;2023-07-29T05:20:31;19.10;99.90
41876;DHT22;27555;50.808;4.402;2023-07-29T05:22:57;19.20;99.90
41876;DHT22;27555;50.808;4.402;2023-07-29T05:25:23;19.20;99.90
41876;DHT22;27555;50.808;4.402;2023-07-29T05:27:48;19.10;99.90
41876;DHT22;27555;50.808;4.402;2023-07-29T05:30:14;19.20;99.90
41876;DHT22;27555;50.808;4.402;2023-07-29T05:32:39;19.40;99.90
41876;DHT22;27555;50.808;4.402;2023-07-29T05:35:05;19.60;99.90
41876;DHT22;27555;50.808;4.402;2023-07-29T05:37:31;19.70;99.90
41876;DHT22;27555;50.808;4.402;2023-07-29T05:39:56;19.80;99.90
41876;DHT22;27555;50.808;4.402;2023-07-29T05:42:22;19.90;99.90
41876;DHT22;27555;50.808;4.402;2023-07-29T05:44:48;20.00;99.90
41876;DHT22;27555;50.808;4.402;2023-07-29T05:47:13;20.10;99.90
41876;DHT22;27555;50.808;4.402;2023-07-29T05:49:39;20.30;99.90
41876;DHT22;27555;50.808;4.402;2023-07-29T05:52:04;20.40;99.90
41876;DHT22;27555;50.808;4.402;2023-07-29T05:54:30;20.50;99.90
41876;DHT22;27555;50.808;4.402;2023-07-29T05:56:56;20.70;99.90
41876;DHT22;27555;50.808;4.402;2023-07-29T05:59:21;20.70;99.90
41876;DHT22;27555;50.808;4.402;2023-07-29T06:01:47;20.70;99.90
41876;DHT22;27555;50.808;4.402;2023-07-29T06:04:12;20.70;99.90
41876;DHT22;27555;50.808;4.402;2023-07-29T06:06:38;20.80;99.90
41876;DHT22;27555;50.808;4.402;2023-07-29T06:09:04;21.00;99.90
41876;DHT22;27555;50.808;4.402;2023-07-29T06:11:29;21.10;99.90
41876;DHT22;27555;50.808;4.402;2023-07-29T06:13:55;21.20;99.90
41876;DHT22;27555;50.808;4.402;2023-07-29T06:16:20;21.20;99.90
41876;DHT22;27555;50.808;4.402;2023-07-29T06:18:47;21.30;99.90
41876;DHT22;27555;50.808;4.402;2023-07-29T06:21:13;21.40;99.90
41876;DHT22;27555;50.808;4.402;2023-07-29T06:23:43;21.50;99.90
41876;DHT22;27555;50.808;4.402;2023-07-29T06:26:08;21.60;99.90
41876;DHT22;27555;50.808;4.402;2023-07-29T06:28:34;21.70;99.90
41876;DHT22;27555;50.808;4.402;2023-07-29T06:30:59;21.90;99.90
41876;DHT22;27555;50.808;4.402;2023-07-29T06:33:25;22.00;99.90
41876;DHT22;27555;50.808;4.402;2023-07-29T06:35:51;22.10;99.90
41876;DHT22;27555;50.808;4.402;2023-07-29T06:38:16;22.10;99.90
41876;DHT22;27555;50.808;4.402;2023-07-29T06:40:49;22.00;99.90
41876;DHT22;27555;50.808;4.402;2023-07-29T06:43:15;22.30;99.90
41876;DHT22;27555;50.808;4.402;2023-07-29T06:45:41;22.30;99.90
41876;DHT22;27555;50.808;4.402;2023-07-29T06:48:07;22.30;99.90
41876;DHT22;27555;50.808;4.402;2023-07-29T06:50:32;22.30;99.90
41876;DHT22;27555;50.808;4.402;2023-07-29T06:52:58;22.10;99.90
41876;DHT22;27555;50.808;4.402;2023-07-29T06:55:23;22.10;99.90
41876;DHT22;27555;50.808;4.402;2023-07-29T06:57:49;22.10;99.90
41876;DHT22;27555;50.808;4.402;2023-07-29T07:00:15;22.00;99.90
41876;DHT22;27555;50.808;4.402;2023-07-29T07:02:40;21.90;99.90
41876;DHT22;27555;50.808;4.402;2023-07-29T07:05:07;21.90;99.90
41876;DHT22;27555;50.808;4.402;2023-07-29T07:07:32;21.80;99.90
41876;DHT22;27555;50.808;4.402;2023-07-29T07:09:58;21.60;99.90
41876;DHT22;27555;50.808;4.402;2023-07-29T07:12:24;21.70;99.90
41876;DHT22;27555;50.808;4.402;2023-07-29T07:14:49;21.80;99.90
41876;DHT22;27555;50.808;4.402;2023-07-29T07:17:15;21.80;99.90
41876;DHT22;27555;50.808;4.402;2023-07-29T07:19:40;22.20;99.90
41876;DHT22;27555;50.808;4.402;2023-07-29T07:22:06;21.80;99.90
41876;DHT22;27555;50.808;4.402;2023-07-29T07:24:31;21.90;99.90
41876;DHT22;27555;50.808;4.402;2023-07-29T07:26:57;21.90;99.90
41876;DHT22;27555;50.808;4.402;2023-07-29T07:29:23;21.90;99.90
41876;DHT22;27555;50.808;4.402;2023-07-29T07:31:53;22.00;99.90
41876;DHT22;27555;50.808;4.402;2023-07-29T07:34:19;21.90;99.90
41876;DHT22;27555;50.808;4.402;2023-07-29T07:36:46;21.90;99.90
41876;DHT22;27555;50.808;4.402;2023-07-29T07:39:11;22.00;99.90
41876;DHT22;27555;50.808;4.402;2023-07-29T07:41:37;21.90;99.90
41876;DHT22;27555;50.808;4.402;2023-07-29T07:44:03;22.00;99.90
41876;DHT22;27555;50.808;4.402;2023-07-29T07:46:29;22.10;99.90
41876;DHT22;27555;50.808;4.402;2023-07-29T07:48:55;22.00;99.90
41876;DHT22;27555;50.808;4.402;2023-07-29T07:51:20;22.10;99.90
41876;DHT22;27555;50.808;4.402;2023-07-29T07:53:46;22.10;99.90
41876;DHT22;27555;50.808;4.402;2023-07-29T07:56:12;22.10;99.90
41876;DHT22;27555;50.808;4.402;2023-07-29T07:58:38;22.30;99.90
41876;DHT22;27555;50.808;4.402;2023-07-29T08:01:04;22.50;99.90
41876;DHT22;27555;50.808;4.402;2023-07-29T08:03:31;22.50;99.90
41876;DHT22;27555;50.808;4.402;2023-07-29T08:05:57;22.60;99.90
41876;DHT22;27555;50.808;4.402;2023-07-29T08:08:23;23.20;99.90
41876;DHT22;27555;50.808;4.402;2023-07-29T08:10:49;23.60;99.90
41876;DHT22;27555;50.808;4.402;2023-07-29T08:13:15;24.10;99.90
41876;DHT22;27555;50.808;4.402;2023-07-29T08:15:40;24.70;99.90
41876;DHT22;27555;50.808;4.402;2023-07-29T08:18:08;25.70;99.90
41876;DHT22;27555;50.808;4.402;2023-07-29T08:20:34;25.90;99.90
41876;DHT22;27555;50.808;4.402;2023-07-29T08:22:59;25.50;99.90
41876;DHT22;27555;50.808;4.402;2023-07-29T08:25:25;24.90;99.90
41876;DHT22;27555;50.808;4.402;2023-07-29T08:27:51;25.00;99.90
41876;DHT22;27555;50.808;4.402;2023-07-29T08:30:16;25.10;99.90
41876;DHT22;27555;50.808;4.402;2023-07-29T08:32:43;25.40;99.90
41876;DHT22;27555;50.808;4.402;2023-07-29T08:35:10;25.60;99.70
41876;DHT22;27555;50.808;4.402;2023-07-29T08:37:35;25.80;99.60
41876;DHT22;27555;50.808;4.402;2023-07-29T08:40:01;25.90;99.40
41876;DHT22;27555;50.808;4.402;2023-07-29T08:42:29;26.60;99.00
41876;DHT22;27555;50.808;4.402;2023-07-29T08:44:56;28.00;97.80
41876;DHT22;27555;50.808;4.402;2023-07-29T08:47:25;28.30;97.10
41876;DHT22;27555;50.808;4.402;2023-07-29T08:49:52;28.40;96.40
41876;DHT22;27555;50.808;4.402;2023-07-29T08:52:18;28.20;96.30
41876;DHT22;27555;50.808;4.402;2023-07-29T08:54:44;27.90;96.30
41876;DHT22;27555;50.808;4.402;2023-07-29T08:57:10;28.20;96.30
41876;DHT22;27555;50.808;4.402;2023-07-29T08:59:36;28.60;95.70
41876;DHT22;27555;50.808;4.402;2023-07-29T09:02:01;29.80;94.30
41876;DHT22;27555;50.808;4.402;2023-07-29T09:04:27;30.60;93.50
41876;DHT22;27555;50.808;4.402;2023-07-29T09:06:56;30.60;93.20
41876;DHT22;27555;50.808;4.402;2023-07-29T09:09:21;31.40;92.80
41876;DHT22;27555;50.808;4.402;2023-07-29T09:11:48;31.60;92.10
41876;DHT22;27555;50.808;4.402;2023-07-29T09:14:13;31.70;91.90
41876;DHT22;27555;50.808;4.402;2023-07-29T09:16:39;31.40;91.90
41876;DHT22;27555;50.808;4.402;2023-07-29T09:19:05;30.30;92.30
41876;DHT22;27555;50.808;4.402;2023-07-29T09:21:32;29.40;92.80
41876;DHT22;27555;50.808;4.402;2023-07-29T09:24:02;28.60;93.60
41876;DHT22;27555;50.808;4.402;2023-07-29T09:26:28;28.20;93.90
41876;DHT22;27555;50.808;4.402;2023-07-29T09:28:56;27.90;93.90
41876;DHT22;27555;50.808;4.402;2023-07-29T09:31:23;27.40;94.60
41876;DHT22;27555;50.808;4.402;2023-07-29T09:33:49;27.50;94.50
41876;DHT22;27555;50.808;4.402;2023-07-29T09:36:15;27.50;94.70
41876;DHT22;27555;50.808;4.402;2023-07-29T09:38:41;27.40;94.80
41876;DHT22;27555;50.808;4.402;2023-07-29T09:41:09;27.20;95.00
41876;DHT22;27555;50.808;4.402;2023-07-29T09:43:37;27.10;95.20
41876;DHT22;27555;50.808;4.402;2023-07-29T09:46:04;26.70;95.70
41876;DHT22;27555;50.808;4.402;2023-07-29T09:48:34;26.60;96.00
41876;DHT22;27555;50.808;4.402;2023-07-29T09:51:11;26.50;96.00
41876;DHT22;27555;50.808;4.402;2023-07-29T09:53:45;26.10;96.50
41876;DHT22;27555;50.808;4.402;2023-07-29T09:56:12;26.30;96.50
41876;DHT22;27555;50.808;4.402;2023-07-29T09:58:38;26.70;96.20
41876;DHT22;27555;50.808;4.402;2023-07-29T10:01:06;26.70;96.30
41876;DHT22;27555;50.808;4.402;2023-07-29T10:03:31;27.90;95.60
41876;DHT22;27555;50.808;4.402;2023-07-29T10:06:01;28.00;95.20
41876;DHT22;27555;50.808;4.402;2023-07-29T10:08:27;27.70;95.40
41876;DHT22;27555;50.808;4.402;2023-07-29T10:10:54;27.10;96.20
41876;DHT22;27555;50.808;4.402;2023-07-29T10:13:20;26.70;96.60
41876;DHT22;27555;50.808;4.402;2023-07-29T10:15:46;26.60;96.40
41876;DHT22;27555;50.808;4.402;2023-07-29T10:18:14;26.50;96.70
41876;DHT22;27555;50.808;4.402;2023-07-29T10:20:42;26.50;97.00
41876;DHT22;27555;50.808;4.402;2023-07-29T10:23:10;26.10;97.30
41876;DHT22;27555;50.808;4.402;2023-07-29T10:25:44;25.80;97.80
41876;DHT22;27555;50.808;4.402;2023-07-29T10:28:12;25.30;99.50
41876;DHT22;27555;50.808;4.402;2023-07-29T10:30:38;25.00;99.90
41876;DHT22;27555;50.808;4.402;2023-07-29T10:33:05;24.80;99.90
41876;DHT22;27555;50.808;4.402;2023-07-29T10:35:34;24.60;99.90
41876;DHT22;27555;50.808;4.402;2023-07-29T10:38:01;24.50;99.90
41876;DHT22;27555;50.808;4.402;2023-07-29T10:40:46;24.60;99.90
41876;DHT22;27555;50.808;4.402;2023-07-29T10:43:19;24.90;99.90
41876;DHT22;27555;50.808;4.402;2023-07-29T10:45:45;26.60;99.90
41876;DHT22;27555;50.808;4.402;2023-07-29T10:48:11;27.60;99.90
41876;DHT22;27555;50.808;4.402;2023-07-29T10:50:37;28.30;99.90
41876;DHT22;27555;50.808;4.402;2023-07-29T10:53:04;27.80;99.90
41876;DHT22;27555;50.808;4.402;2023-07-29T10:55:36;27.10;99.90
41876;DHT22;27555;50.808;4.402;2023-07-29T10:58:13;26.70;99.90
41876;DHT22;27555;50.808;4.402;2023-07-29T11:00:41;26.10;99.90
41876;DHT22;27555;50.808;4.402;2023-07-29T11:03:08;25.80;99.90
41876;DHT22;27555;50.808;4.402;2023-07-29T11:05:51;25.60;99.90
41876;DHT22;27555;50.808;4.402;2023-07-29T11:08:18;25.40;99.90
41876;DHT22;27555;50.808;4.402;2023-07-29T11:10:45;25.50;99.90
41876;DHT22;27555;50.808;4.402;2023-07-29T11:13:22;25.20;99.90
41876;DHT22;27555;50.808;4.402;2023-07-29T11:15:48;24.90;99.90
41876;DHT22;27555;50.808;4.402;2023-07-29T11:18:15;24.60;99.90
41876;DHT22;27555;50.808;4.402;2023-07-29T11:20:41;24.30;99.90
41876;DHT22;27555;50.808;4.402;2023-07-29T11:23:07;23.80;99.90
41876;DHT22;27555;50.808;4.402;2023-07-29T11:25:32;23.70;99.90
41876;DHT22;27555;50.808;4.402;2023-07-29T11:28:01;23.50;99.90
41876;DHT22;27555;50.808;4.402;2023-07-29T11:30:27;23.50;99.90
41876;DHT22;27555;50.808;4.402;2023-07-29T11:32:55;23.40;99.90
41876;DHT22;27555;50.808;4.402;2023-07-29T11:35:21;23.50;99.90
41876;DHT22;27555;50.808;4.402;2023-07-29T11:37:49;23.60;99.90
41876;DHT22;27555;50.808;4.402;2023-07-29T11:42:42;23.70;99.90
41876;DHT22;27555;50.808;4.402;2023-07-29T11:45:08;23.70;99.90
41876;DHT22;27555;50.808;4.402;2023-07-29T11:47:35;23.90;99.90
41876;DHT22;27555;50.808;4.402;2023-07-29T11:50:06;24.30;99.90
41876;DHT22;27555;50.808;4.402;2023-07-29T11:52:36;26.00;99.90
41876;DHT22;27555;50.808;4.402;2023-07-29T11:55:03;27.60;99.90
41876;DHT22;27555;50.808;4.402;2023-07-29T11:57:30;28.90;99.00
41876;DHT22;27555;50.808;4.402;2023-07-29T11:59:56;29.60;98.00
41876;DHT22;27555;50.808;4.402;2023-07-29T12:02:23;29.30;97.80
41876;DHT22;27555;50.808;4.402;2023-07-29T12:04:50;28.40;98.70
41876;DHT22;27555;50.808;4.402;2023-07-29T12:07:17;27.60;99.10
41876;DHT22;27555;50.808;4.402;2023-07-29T12:09:43;26.90;99.90
41876;DHT22;27555;50.808;4.402;2023-07-29T12:12:09;26.20;99.80
41876;DHT22;27555;50.808;4.402;2023-07-29T12:14:35;26.10;99.90
41876;DHT22;27555;50.808;4.402;2023-07-29T12:17:02;25.70;99.90
41876;DHT22;27555;50.808;4.402;2023-07-29T12:19:36;25.40;99.90
41876;DHT22;27555;50.808;4.402;2023-07-29T12:22:03;25.20;99.90
41876;DHT22;27555;50.808;4.402;2023-07-29T12:24:30;25.00;99.90
41876;DHT22;27555;50.808;4.402;2023-07-29T12:26:56;24.80;99.90
41876;DHT22;27555;50.808;4.402;2023-07-29T12:29:22;24.60;99.90
41876;DHT22;27555;50.808;4.402;2023-07-29T12:31:55;24.30;99.90
41876;DHT22;27555;50.808;4.402;2023-07-29T12:34:22;24.00;99.90
41876;DHT22;27555;50.808;4.402;2023-07-29T12:36:51;23.70;99.90
41876;DHT22;27555;50.808;4.402;2023-07-29T12:41:43;23.70;99.90
41876;DHT22;27555;50.808;4.402;2023-07-29T12:44:08;23.70;99.90
41876;DHT22;27555;50.808;4.402;2023-07-29T12:46:34;23.90;99.90
41876;DHT22;27555;50.808;4.402;2023-07-29T12:48:59;23.60;99.90
41876;DHT22;27555;50.808;4.402;2023-07-29T12:51:25;23.70;99.90
41876;DHT22;27555;50.808;4.402;2023-07-29T12:53:51;23.90;99.90
41876;DHT22;27555;50.808;4.402;2023-07-29T12:56:16;24.30;99.90
41876;DHT22;27555;50.808;4.402;2023-07-29T12:58:42;24.50;99.90
41876;DHT22;27555;50.808;4.402;2023-07-29T13:01:07;24.90;99.90
41876;DHT22;27555;50.808;4.402;2023-07-29T13:03:34;25.20;99.90
41876;DHT22;27555;50.808;4.402;2023-07-29T13:06:00;25.40;99.90
41876;DHT22;27555;50.808;4.402;2023-07-29T13:08:25;25.60;99.90
41876;DHT22;27555;50.808;4.402;2023-07-29T13:10:51;25.60;99.90
41876;DHT22;27555;50.808;4.402;2023-07-29T13:13:16;25.60;99.90
41876;DHT22;27555;50.808;4.402;2023-07-29T13:15:42;25.90;99.90
41876;DHT22;27555;50.808;4.402;2023-07-29T13:18:07;25.50;99.90
41876;DHT22;27555;50.808;4.402;2023-07-29T13:20:33;25.30;99.90
41876;DHT22;27555;50.808;4.402;2023-07-29T13:23:00;25.30;99.90
41876;DHT22;27555;50.808;4.402;2023-07-29T13:25:25;25.30;99.90
41876;DHT22;27555;50.808;4.402;2023-07-29T13:27:51;25.60;99.90
41876;DHT22;27555;50.808;4.402;2023-07-29T13:30:16;25.70;99.90
41876;DHT22;27555;50.808;4.402;2023-07-29T13:32:42;25.80;99.90
41876;DHT22;27555;50.808;4.402;2023-07-29T13:35:07;26.10;99.90
41876;DHT22;27555;50.808;4.402;2023-07-29T13:37:33;26.20;99.90
41876;DHT22;27555;50.808;4.402;2023-07-29T13:39:59;26.20;99.90
41876;DHT22;27555;50.808;4.402;2023-07-29T13:42:24;26.20;99.90
41876;DHT22;27555;50.808;4.402;2023-07-29T13:44:50;26.20;99.90
41876;DHT22;27555;50.808;4.402;2023-07-29T13:47:15;26.20;99.90
41876;DHT22;27555;50.808;4.402;2023-07-29T13:49:41;26.20;99.90
41876;DHT22;27555;50.808;4.402;2023-07-29T13:52:07;26.30;99.90
41876;DHT22;27555;50.808;4.402;2023-07-29T13:54:32;26.40;99.90
41876;DHT22;27555;50.808;4.402;2023-07-29T13:56:58;26.10;99.90
41876;DHT22;27555;50.808;4.402;2023-07-29T13:59:23;25.50;99.90
41876;DHT22;27555;50.808;4.402;2023-07-29T14:01:49;25.40;99.90
41876;DHT22;27555;50.808;4.402;2023-07-29T14:04:14;25.20;99.90
41876;DHT22;27555;50.808;4.402;2023-07-29T14:06:40;25.40;99.90
41876;DHT22;27555;50.808;4.402;2023-07-29T14:09:06;25.50;99.90
41876;DHT22;27555;50.808;4.402;2023-07-29T14:11:32;25.90;99.90
41876;DHT22;27555;50.808;4.402;2023-07-29T14:13:57;25.60;99.90
41876;DHT22;27555;50.808;4.402;2023-07-29T14:16:23;25.30;99.90
41876;DHT22;27555;50.808;4.402;2023-07-29T14:18:49;25.30;99.90
41876;DHT22;27555;50.808;4.402;2023-07-29T14:21:14;25.20;99.90
41876;DHT22;27555;50.808;4.402;2023-07-29T14:23:40;25.30;99.90
41876;DHT22;27555;50.808;4.402;2023-07-29T14:26:05;25.60;99.90
41876;DHT22;27555;50.808;4.402;2023-07-29T14:28:31;25.70;99.90
41876;DHT22;27555;50.808;4.402;2023-07-29T14:30:57;25.90;99.90
41876;DHT22;27555;50.808;4.402;2023-07-29T14:33:22;26.00;99.90
41876;DHT22;27555;50.808;4.402;2023-07-29T14:35:48;25.80;99.90
41876;DHT22;27555;50.808;4.402;2023-07-29T14:38:13;25.90;99.90
41876;DHT22;27555;50.808;4.402;2023-07-29T14:40:39;25.80;99.90
41876;DHT22;27555;50.808;4.402;2023-07-29T14:43:04;25.80;99.90
41876;DHT22;27555;50.808;4.402;2023-07-29T14:45:30;25.60;99.90
41876;DHT22;27555;50.808;4.402;2023-07-29T14:47:55;25.60;99.90
41876;DHT22;27555;50.808;4.402;2023-07-29T14:50:21;25.90;99.90
41876;DHT22;27555;50.808;4.402;2023-07-29T14:52:47;25.90;99.90
41876;DHT22;27555;50.808;4.402;2023-07-29T14:55:12;26.00;99.90
41876;DHT22;27555;50.808;4.402;2023-07-29T14:57:38;25.90;99.90
41876;DHT22;27555;50.808;4.402;2023-07-29T15:00:06;25.60;99.90
41876;DHT22;27555;50.808;4.402;2023-07-29T15:02:32;25.40;99.90
41876;DHT22;27555;50.808;4.402;2023-07-29T15:04:58;25.70;99.90
41876;DHT22;27555;50.808;4.402;2023-07-29T15:07:25;25.70;99.90
41876;DHT22;27555;50.808;4.402;2023-07-29T15:09:50;25.60;99.90
41876;DHT22;27555;50.808;4.402;2023-07-29T15:12:16;25.90;99.90
41876;DHT22;27555;50.808;4.402;2023-07-29T15:14:41;25.90;99.90
41876;DHT22;27555;50.808;4.402;2023-07-29T15:17:07;25.60;99.90
41876;DHT22;27555;50.808;4.402;2023-07-29T15:19:33;25.70;99.90
41876;DHT22;27555;50.808;4.402;2023-07-29T15:21:58;25.70;99.90
41876;DHT22;27555;50.808;4.402;2023-07-29T15:24:24;25.60;99.90
41876;DHT22;27555;50.808;4.402;2023-07-29T15:26:49;25.70;99.90
41876;DHT22;27555;50.808;4.402;2023-07-29T15:29:15;25.40;99.90
41876;DHT22;27555;50.808;4.402;2023-07-29T15:31:40;25.40;99.90
41876;DHT22;27555;50.808;4.402;2023-07-29T15:34:07;25.30;99.90
41876;DHT22;27555;50.808;4.402;2023-07-29T15:36:32;25.10;99.90
41876;DHT22;27555;50.808;4.402;2023-07-29T15:38:59;25.00;99.90